sensor_id;sensor_type;location;lat;lon;timestamp;pressure;altitude;pressure_sealevel;temperature
10058;BMP180;5068;51.286;7.518;2022-09-09T00:00:23;98696.00;;;17.90
10058;BMP180;5068;51.286;7.518;2022-09-09T00:02:05;98695.00;;;17.90
10058;BMP180;5068;51.286;7.518;2022-09-09T00:03:50;98686.00;;;17.90
10058;BMP180;5068;51.286;7.518;2022-09-09T00:05:32;98687.00;;;17.90
10058;BMP180;5068;51.286;7.518;2022-09-09T00:07:17;98688.00;;;17.90
10058;BMP180;5068;51.286;7.518;2022-09-09T00:09:05;98687.00;;;17.90
10058;BMP180;5068;51.286;7.518;2022-09-09T00:10:40;98688.00;;;17.90
10058;BMP180;5068;51.286;7.518;2022-09-09T00:12:22;98683.00;;;17.90
10058;BMP180;5068;51.286;7.518;2022-09-09T00:14:03;98678.00;;;17.90
10058;BMP180;5068;51.286;7.518;2022-09-09T00:15:54;98685.00;;;17.90
10058;BMP180;5068;51.286;7.518;2022-09-09T00:17:38;98689.00;;;17.90
10058;BMP180;5068;51.286;7.518;2022-09-09T00:19:20;98686.00;;;18.00
10058;BMP180;5068;51.286;7.518;2022-09-09T00:21:01;98687.00;;;18.00
10058;BMP180;5068;51.286;7.518;2022-09-09T00:22:46;98691.00;;;18.00
10058;BMP180;5068;51.286;7.518;2022-09-09T00:24:32;98693.00;;;18.00
10058;BMP180;5068;51.286;7.518;2022-09-09T00:26:16;98689.00;;;17.90
10058;BMP180;5068;51.286;7.518;2022-09-09T00:27:52;98698.00;;;18.00
10058;BMP180;5068;51.286;7.518;2022-09-09T00:29:33;98692.00;;;18.00
10058;BMP180;5068;51.286;7.518;2022-09-09T00:31:17;98687.00;;;18.00
10058;BMP180;5068;51.286;7.518;2022-09-09T00:32:55;98688.00;;;18.00
10058;BMP180;5068;51.286;7.518;2022-09-09T00:34:32;98693.00;;;18.00
10058;BMP180;5068;51.286;7.518;2022-09-09T00:36:14;98684.00;;;18.00
10058;BMP180;5068;51.286;7.518;2022-09-09T00:37:53;98684.00;;;18.00
10058;BMP180;5068;51.286;7.518;2022-09-09T00:39:35;98680.00;;;18.10
10058;BMP180;5068;51.286;7.518;2022-09-09T00:41:20;98679.00;;;18.10
10058;BMP180;5068;51.286;7.518;2022-09-09T00:45:05;98671.00;;;18.10
10058;BMP180;5068;51.286;7.518;2022-09-09T00:46:59;98663.00;;;18.10
10058;BMP180;5068;51.286;7.518;2022-09-09T00:48:52;98666.00;;;18.00
10058;BMP180;5068;51.286;7.518;2022-09-09T00:50:44;98660.00;;;18.00
10058;BMP180;5068;51.286;7.518;2022-09-09T00:52:31;98670.00;;;18.00
10058;BMP180;5068;51.286;7.518;2022-09-09T00:54:25;98667.00;;;18.00
10058;BMP180;5068;51.286;7.518;2022-09-09T00:56:12;98664.00;;;18.00
10058;BMP180;5068;51.286;7.518;2022-09-09T00:57:47;98673.00;;;18.00
10058;BMP180;5068;51.286;7.518;2022-09-09T00:59:32;98666.00;;;18.00
10058;BMP180;5068;51.286;7.518;2022-09-09T01:01:13;98667.00;;;17.90
10058;BMP180;5068;51.286;7.518;2022-09-09T01:03:18;98667.00;;;17.90
10058;BMP180;5068;51.286;7.518;2022-09-09T01:05:12;98666.00;;;17.90
10058;BMP180;5068;51.286;7.518;2022-09-09T01:07:01;98666.00;;;17.90
10058;BMP180;5068;51.286;7.518;2022-09-09T01:09:04;98661.00;;;17.90
10058;BMP180;5068;51.286;7.518;2022-09-09T01:10:50;98669.00;;;17.80
10058;BMP180;5068;51.286;7.518;2022-09-09T01:12:41;98673.00;;;17.80
10058;BMP180;5068;51.286;7.518;2022-09-09T01:14:42;98671.00;;;17.80
10058;BMP180;5068;51.286;7.518;2022-09-09T01:16:22;98672.00;;;17.70
10058;BMP180;5068;51.286;7.518;2022-09-09T01:18:08;98676.00;;;17.70
10058;BMP180;5068;51.286;7.518;2022-09-09T01:20:02;98671.00;;;17.70
10058;BMP180;5068;51.286;7.518;2022-09-09T01:21:50;98680.00;;;17.70
10058;BMP180;5068;51.286;7.518;2022-09-09T01:23:48;98674.00;;;17.70
10058;BMP180;5068;51.286;7.518;2022-09-09T01:26:10;98664.00;;;17.70
10058;BMP180;5068;51.286;7.518;2022-09-09T01:27:48;98672.00;;;17.70
10058;BMP180;5068;51.286;7.518;2022-09-09T01:29:22;98671.00;;;17.70
10058;BMP180;5068;51.286;7.518;2022-09-09T01:30:57;98667.00;;;17.70
10058;BMP180;5068;51.286;7.518;2022-09-09T01:32:42;98665.00;;;17.70
10058;BMP180;5068;51.286;7.518;2022-09-09T01:34:17;98665.00;;;17.60
10058;BMP180;5068;51.286;7.518;2022-09-09T01:35:58;98658.00;;;17.60
10058;BMP180;5068;51.286;7.518;2022-09-09T01:37:38;98662.00;;;17.60
10058;BMP180;5068;51.286;7.518;2022-09-09T01:39:12;98664.00;;;17.60
10058;BMP180;5068;51.286;7.518;2022-09-09T01:40:46;98669.00;;;17.60
10058;BMP180;5068;51.286;7.518;2022-09-09T01:42:22;98656.00;;;17.60
10058;BMP180;5068;51.286;7.518;2022-09-09T01:43:57;98663.00;;;17.60
10058;BMP180;5068;51.286;7.518;2022-09-09T01:45:31;98661.00;;;17.60
10058;BMP180;5068;51.286;7.518;2022-09-09T01:47:05;98663.00;;;17.60
10058;BMP180;5068;51.286;7.518;2022-09-09T01:48:43;98668.00;;;17.60
10058;BMP180;5068;51.286;7.518;2022-09-09T01:50:20;98658.00;;;17.60
10058;BMP180;5068;51.286;7.518;2022-09-09T01:51:55;98661.00;;;17.60
10058;BMP180;5068;51.286;7.518;2022-09-09T01:53:35;98659.00;;;17.60
10058;BMP180;5068;51.286;7.518;2022-09-09T01:55:09;98662.00;;;17.60
10058;BMP180;5068;51.286;7.518;2022-09-09T01:56:56;98668.00;;;17.60
10058;BMP180;5068;51.286;7.518;2022-09-09T01:58:51;98668.00;;;17.60
10058;BMP180;5068;51.286;7.518;2022-09-09T02:00:30;98660.00;;;17.60
10058;BMP180;5068;51.286;7.518;2022-09-09T02:02:12;98668.00;;;17.60
10058;BMP180;5068;51.286;7.518;2022-09-09T02:04:03;98669.00;;;17.60
10058;BMP180;5068;51.286;7.518;2022-09-09T02:05:41;98663.00;;;17.60
10058;BMP180;5068;51.286;7.518;2022-09-09T02:07:38;98667.00;;;17.60
10058;BMP180;5068;51.286;7.518;2022-09-09T02:09:26;98664.00;;;17.50
10058;BMP180;5068;51.286;7.518;2022-09-09T02:11:06;98663.00;;;17.60
10058;BMP180;5068;51.286;7.518;2022-09-09T02:12:50;98664.00;;;17.50
10058;BMP180;5068;51.286;7.518;2022-09-09T02:14:35;98679.00;;;17.50
10058;BMP180;5068;51.286;7.518;2022-09-09T02:16:17;98666.00;;;17.40
10058;BMP180;5068;51.286;7.518;2022-09-09T02:17:57;98667.00;;;17.40
10058;BMP180;5068;51.286;7.518;2022-09-09T02:19:36;98663.00;;;17.40
10058;BMP180;5068;51.286;7.518;2022-09-09T02:21:18;98663.00;;;17.40
10058;BMP180;5068;51.286;7.518;2022-09-09T02:22:53;98657.00;;;17.40
10058;BMP180;5068;51.286;7.518;2022-09-09T02:24:33;98665.00;;;17.40
10058;BMP180;5068;51.286;7.518;2022-09-09T02:26:21;98665.00;;;17.40
10058;BMP180;5068;51.286;7.518;2022-09-09T02:28:02;98652.00;;;17.40
10058;BMP180;5068;51.286;7.518;2022-09-09T02:29:40;98660.00;;;17.40
10058;BMP180;5068;51.286;7.518;2022-09-09T02:31:18;98668.00;;;17.40
10058;BMP180;5068;51.286;7.518;2022-09-09T02:32:55;98667.00;;;17.40
10058;BMP180;5068;51.286;7.518;2022-09-09T02:34:46;98656.00;;;17.40
10058;BMP180;5068;51.286;7.518;2022-09-09T02:36:23;98670.00;;;17.30
10058;BMP180;5068;51.286;7.518;2022-09-09T02:38:01;98665.00;;;17.30
10058;BMP180;5068;51.286;7.518;2022-09-09T02:39:37;98664.00;;;17.30
10058;BMP180;5068;51.286;7.518;2022-09-09T02:41:13;98667.00;;;17.30
10058;BMP180;5068;51.286;7.518;2022-09-09T02:42:49;98671.00;;;17.30
10058;BMP180;5068;51.286;7.518;2022-09-09T02:44:25;98672.00;;;17.30
10058;BMP180;5068;51.286;7.518;2022-09-09T02:46:08;98668.00;;;17.20
10058;BMP180;5068;51.286;7.518;2022-09-09T02:47:53;98667.00;;;17.20
10058;BMP180;5068;51.286;7.518;2022-09-09T02:49:44;98665.00;;;17.10
10058;BMP180;5068;51.286;7.518;2022-09-09T02:51:32;98665.00;;;17.10
10058;BMP180;5068;51.286;7.518;2022-09-09T02:53:16;98657.00;;;17.00
10058;BMP180;5068;51.286;7.518;2022-09-09T02:55:07;98660.00;;;17.00
10058;BMP180;5068;51.286;7.518;2022-09-09T02:56:50;98651.00;;;17.00
10058;BMP180;5068;51.286;7.518;2022-09-09T02:58:32;98663.00;;;17.00
10058;BMP180;5068;51.286;7.518;2022-09-09T03:00:47;98659.00;;;16.90
10058;BMP180;5068;51.286;7.518;2022-09-09T03:02:24;98654.00;;;16.80
10058;BMP180;5068;51.286;7.518;2022-09-09T03:04:03;98666.00;;;16.80
10058;BMP180;5068;51.286;7.518;2022-09-09T03:05:37;98667.00;;;16.80
10058;BMP180;5068;51.286;7.518;2022-09-09T03:07:11;98668.00;;;16.80
10058;BMP180;5068;51.286;7.518;2022-09-09T03:08:46;98671.00;;;16.80
10058;BMP180;5068;51.286;7.518;2022-09-09T03:10:26;98670.00;;;16.80
10058;BMP180;5068;51.286;7.518;2022-09-09T03:12:01;98675.00;;;16.80
10058;BMP180;5068;51.286;7.518;2022-09-09T03:13:37;98666.00;;;16.80
10058;BMP180;5068;51.286;7.518;2022-09-09T03:15:11;98674.00;;;16.80
10058;BMP180;5068;51.286;7.518;2022-09-09T03:16:45;98662.00;;;16.80
10058;BMP180;5068;51.286;7.518;2022-09-09T03:18:20;98673.00;;;16.80
10058;BMP180;5068;51.286;7.518;2022-09-09T03:19:56;98671.00;;;16.80
10058;BMP180;5068;51.286;7.518;2022-09-09T03:21:30;98671.00;;;16.80
10058;BMP180;5068;51.286;7.518;2022-09-09T03:23:03;98665.00;;;16.80
10058;BMP180;5068;51.286;7.518;2022-09-09T03:24:37;98664.00;;;16.80
10058;BMP180;5068;51.286;7.518;2022-09-09T03:26:13;98659.00;;;16.80
10058;BMP180;5068;51.286;7.518;2022-09-09T03:27:53;98660.00;;;16.80
10058;BMP180;5068;51.286;7.518;2022-09-09T03:29:28;98660.00;;;16.80
10058;BMP180;5068;51.286;7.518;2022-09-09T03:31:05;98658.00;;;16.80
10058;BMP180;5068;51.286;7.518;2022-09-09T03:32:43;98654.00;;;16.80
10058;BMP180;5068;51.286;7.518;2022-09-09T03:34:21;98651.00;;;16.80
10058;BMP180;5068;51.286;7.518;2022-09-09T03:35:55;98647.00;;;16.80
10058;BMP180;5068;51.286;7.518;2022-09-09T03:37:28;98642.00;;;16.80
10058;BMP180;5068;51.286;7.518;2022-09-09T03:39:03;98654.00;;;16.80
10058;BMP180;5068;51.286;7.518;2022-09-09T03:40:36;98657.00;;;16.80
10058;BMP180;5068;51.286;7.518;2022-09-09T03:42:12;98646.00;;;16.80
10058;BMP180;5068;51.286;7.518;2022-09-09T03:43:46;98650.00;;;16.80
10058;BMP180;5068;51.286;7.518;2022-09-09T03:45:19;98649.00;;;16.80
10058;BMP180;5068;51.286;7.518;2022-09-09T03:46:53;98654.00;;;16.70
10058;BMP180;5068;51.286;7.518;2022-09-09T03:48:27;98648.00;;;16.80
10058;BMP180;5068;51.286;7.518;2022-09-09T03:50:04;98645.00;;;16.70
10058;BMP180;5068;51.286;7.518;2022-09-09T03:51:41;98651.00;;;16.70
10058;BMP180;5068;51.286;7.518;2022-09-09T03:53:19;98645.00;;;16.80
10058;BMP180;5068;51.286;7.518;2022-09-09T03:54:54;98640.00;;;16.80
10058;BMP180;5068;51.286;7.518;2022-09-09T03:56:28;98642.00;;;16.80
10058;BMP180;5068;51.286;7.518;2022-09-09T03:58:02;98639.00;;;16.80
10058;BMP180;5068;51.286;7.518;2022-09-09T03:59:36;98644.00;;;16.80
10058;BMP180;5068;51.286;7.518;2022-09-09T04:01:13;98656.00;;;16.80
10058;BMP180;5068;51.286;7.518;2022-09-09T04:02:49;98651.00;;;16.80
10058;BMP180;5068;51.286;7.518;2022-09-09T04:04:26;98653.00;;;16.80
10058;BMP180;5068;51.286;7.518;2022-09-09T04:06:03;98656.00;;;16.80
10058;BMP180;5068;51.286;7.518;2022-09-09T04:07:38;98656.00;;;16.80
10058;BMP180;5068;51.286;7.518;2022-09-09T04:09:14;98650.00;;;16.90
10058;BMP180;5068;51.286;7.518;2022-09-09T04:10:49;98656.00;;;16.90
10058;BMP180;5068;51.286;7.518;2022-09-09T04:12:22;98653.00;;;16.90
10058;BMP180;5068;51.286;7.518;2022-09-09T04:13:56;98653.00;;;16.90
10058;BMP180;5068;51.286;7.518;2022-09-09T04:15:28;98653.00;;;16.90
10058;BMP180;5068;51.286;7.518;2022-09-09T04:17:02;98649.00;;;16.90
10058;BMP180;5068;51.286;7.518;2022-09-09T04:18:38;98656.00;;;16.90
10058;BMP180;5068;51.286;7.518;2022-09-09T04:20:12;98652.00;;;16.90
10058;BMP180;5068;51.286;7.518;2022-09-09T04:21:47;98653.00;;;16.90
10058;BMP180;5068;51.286;7.518;2022-09-09T04:23:27;98656.00;;;16.90
10058;BMP180;5068;51.286;7.518;2022-09-09T04:25:03;98655.00;;;16.90
10058;BMP180;5068;51.286;7.518;2022-09-09T04:26:38;98655.00;;;16.90
10058;BMP180;5068;51.286;7.518;2022-09-09T04:28:12;98656.00;;;16.90
10058;BMP180;5068;51.286;7.518;2022-09-09T04:29:44;98662.00;;;16.90
10058;BMP180;5068;51.286;7.518;2022-09-09T04:31:20;98660.00;;;16.90
10058;BMP180;5068;51.286;7.518;2022-09-09T04:32:58;98665.00;;;16.90
10058;BMP180;5068;51.286;7.518;2022-09-09T04:34:32;98656.00;;;16.80
10058;BMP180;5068;51.286;7.518;2022-09-09T04:36:06;98659.00;;;16.90
10058;BMP180;5068;51.286;7.518;2022-09-09T04:37:41;98650.00;;;16.80
10058;BMP180;5068;51.286;7.518;2022-09-09T04:39:13;98654.00;;;16.90
10058;BMP180;5068;51.286;7.518;2022-09-09T04:40:47;98654.00;;;16.80
10058;BMP180;5068;51.286;7.518;2022-09-09T04:42:19;98656.00;;;16.80
10058;BMP180;5068;51.286;7.518;2022-09-09T04:43:53;98661.00;;;16.80
10058;BMP180;5068;51.286;7.518;2022-09-09T04:45:27;98656.00;;;16.80
10058;BMP180;5068;51.286;7.518;2022-09-09T04:47:01;98656.00;;;16.80
10058;BMP180;5068;51.286;7.518;2022-09-09T04:48:34;98659.00;;;16.80
10058;BMP180;5068;51.286;7.518;2022-09-09T04:50:10;98657.00;;;16.80
10058;BMP180;5068;51.286;7.518;2022-09-09T04:51:44;98655.00;;;16.80
10058;BMP180;5068;51.286;7.518;2022-09-09T04:53:20;98655.00;;;16.80
10058;BMP180;5068;51.286;7.518;2022-09-09T04:54:53;98651.00;;;16.80
10058;BMP180;5068;51.286;7.518;2022-09-09T04:56:26;98638.00;;;16.80
10058;BMP180;5068;51.286;7.518;2022-09-09T04:58:04;98643.00;;;16.70
10058;BMP180;5068;51.286;7.518;2022-09-09T04:59:37;98655.00;;;16.70
10058;BMP180;5068;51.286;7.518;2022-09-09T05:01:13;98660.00;;;16.70
10058;BMP180;5068;51.286;7.518;2022-09-09T05:02:49;98657.00;;;16.70
10058;BMP180;5068;51.286;7.518;2022-09-09T05:04:23;98651.00;;;16.70
10058;BMP180;5068;51.286;7.518;2022-09-09T05:06:03;98663.00;;;16.70
10058;BMP180;5068;51.286;7.518;2022-09-09T05:07:37;98658.00;;;16.70
10058;BMP180;5068;51.286;7.518;2022-09-09T05:09:13;98654.00;;;16.70
10058;BMP180;5068;51.286;7.518;2022-09-09T05:10:48;98653.00;;;16.80
10058;BMP180;5068;51.286;7.518;2022-09-09T05:12:22;98649.00;;;16.70
10058;BMP180;5068;51.286;7.518;2022-09-09T05:13:57;98652.00;;;16.80
10058;BMP180;5068;51.286;7.518;2022-09-09T05:15:32;98656.00;;;16.80
10058;BMP180;5068;51.286;7.518;2022-09-09T05:17:07;98650.00;;;16.80
10058;BMP180;5068;51.286;7.518;2022-09-09T05:18:43;98656.00;;;16.80
10058;BMP180;5068;51.286;7.518;2022-09-09T05:20:17;98658.00;;;16.80
10058;BMP180;5068;51.286;7.518;2022-09-09T05:21:50;98650.00;;;16.80
10058;BMP180;5068;51.286;7.518;2022-09-09T05:23:29;98656.00;;;16.80
10058;BMP180;5068;51.286;7.518;2022-09-09T05:25:06;98658.00;;;16.80
10058;BMP180;5068;51.286;7.518;2022-09-09T05:26:40;98658.00;;;16.80
10058;BMP180;5068;51.286;7.518;2022-09-09T05:28:14;98661.00;;;16.80
10058;BMP180;5068;51.286;7.518;2022-09-09T05:29:48;98661.00;;;16.80
10058;BMP180;5068;51.286;7.518;2022-09-09T05:31:21;98663.00;;;16.90
10058;BMP180;5068;51.286;7.518;2022-09-09T05:32:58;98661.00;;;16.90
10058;BMP180;5068;51.286;7.518;2022-09-09T05:34:32;98664.00;;;16.90
10058;BMP180;5068;51.286;7.518;2022-09-09T05:36:08;98666.00;;;16.90
10058;BMP180;5068;51.286;7.518;2022-09-09T05:37:42;98662.00;;;16.90
10058;BMP180;5068;51.286;7.518;2022-09-09T05:39:16;98659.00;;;16.90
10058;BMP180;5068;51.286;7.518;2022-09-09T05:40:52;98661.00;;;17.00
10058;BMP180;5068;51.286;7.518;2022-09-09T05:42:25;98661.00;;;17.00
10058;BMP180;5068;51.286;7.518;2022-09-09T05:43:58;98660.00;;;17.00
10058;BMP180;5068;51.286;7.518;2022-09-09T05:45:33;98654.00;;;17.00
10058;BMP180;5068;51.286;7.518;2022-09-09T05:47:07;98665.00;;;17.00
10058;BMP180;5068;51.286;7.518;2022-09-09T05:48:43;98654.00;;;17.10
10058;BMP180;5068;51.286;7.518;2022-09-09T05:50:18;98661.00;;;17.10
10058;BMP180;5068;51.286;7.518;2022-09-09T05:51:52;98669.00;;;17.10
10058;BMP180;5068;51.286;7.518;2022-09-09T05:53:28;98667.00;;;17.10
10058;BMP180;5068;51.286;7.518;2022-09-09T05:55:06;98669.00;;;17.10
10058;BMP180;5068;51.286;7.518;2022-09-09T05:56:41;98677.00;;;17.10
10058;BMP180;5068;51.286;7.518;2022-09-09T05:58:14;98675.00;;;17.20
10058;BMP180;5068;51.286;7.518;2022-09-09T05:59:49;98685.00;;;17.20
10058;BMP180;5068;51.286;7.518;2022-09-09T06:01:26;98675.00;;;17.20
10058;BMP180;5068;51.286;7.518;2022-09-09T06:03:01;98675.00;;;17.20
10058;BMP180;5068;51.286;7.518;2022-09-09T06:04:35;98675.00;;;17.20
10058;BMP180;5068;51.286;7.518;2022-09-09T06:06:12;98686.00;;;17.20
10058;BMP180;5068;51.286;7.518;2022-09-09T06:07:48;98683.00;;;17.20
10058;BMP180;5068;51.286;7.518;2022-09-09T06:09:22;98687.00;;;17.20
10058;BMP180;5068;51.286;7.518;2022-09-09T06:11:02;98678.00;;;17.30
10058;BMP180;5068;51.286;7.518;2022-09-09T06:12:38;98678.00;;;17.30
10058;BMP180;5068;51.286;7.518;2022-09-09T06:14:12;98671.00;;;17.30
10058;BMP180;5068;51.286;7.518;2022-09-09T06:15:50;98675.00;;;17.30
10058;BMP180;5068;51.286;7.518;2022-09-09T06:17:24;98684.00;;;17.30
10058;BMP180;5068;51.286;7.518;2022-09-09T06:18:58;98677.00;;;17.30
10058;BMP180;5068;51.286;7.518;2022-09-09T06:20:33;98676.00;;;17.40
10058;BMP180;5068;51.286;7.518;2022-09-09T06:22:07;98673.00;;;17.40
10058;BMP180;5068;51.286;7.518;2022-09-09T06:23:45;98673.00;;;17.40
10058;BMP180;5068;51.286;7.518;2022-09-09T06:25:18;98680.00;;;17.40
10058;BMP180;5068;51.286;7.518;2022-09-09T06:26:52;98676.00;;;17.40
10058;BMP180;5068;51.286;7.518;2022-09-09T06:28:32;98682.00;;;17.40
10058;BMP180;5068;51.286;7.518;2022-09-09T06:30:07;98683.00;;;17.50
10058;BMP180;5068;51.286;7.518;2022-09-09T06:31:42;98678.00;;;17.50
10058;BMP180;5068;51.286;7.518;2022-09-09T06:33:20;98682.00;;;17.50
10058;BMP180;5068;51.286;7.518;2022-09-09T06:34:53;98685.00;;;17.60
10058;BMP180;5068;51.286;7.518;2022-09-09T06:36:29;98678.00;;;17.60
10058;BMP180;5068;51.286;7.518;2022-09-09T06:38:03;98679.00;;;17.60
10058;BMP180;5068;51.286;7.518;2022-09-09T06:39:37;98677.00;;;17.70
10058;BMP180;5068;51.286;7.518;2022-09-09T06:41:14;98679.00;;;17.70
10058;BMP180;5068;51.286;7.518;2022-09-09T06:42:49;98683.00;;;17.70
10058;BMP180;5068;51.286;7.518;2022-09-09T06:44:29;98684.00;;;17.80
10058;BMP180;5068;51.286;7.518;2022-09-09T06:46:11;98691.00;;;17.90
10058;BMP180;5068;51.286;7.518;2022-09-09T06:47:45;98687.00;;;17.90
10058;BMP180;5068;51.286;7.518;2022-09-09T06:49:19;98692.00;;;17.90
10058;BMP180;5068;51.286;7.518;2022-09-09T06:51:01;98697.00;;;18.00
10058;BMP180;5068;51.286;7.518;2022-09-09T06:52:35;98691.00;;;18.00
10058;BMP180;5068;51.286;7.518;2022-09-09T06:54:10;98683.00;;;18.00
10058;BMP180;5068;51.286;7.518;2022-09-09T06:55:47;98688.00;;;18.10
10058;BMP180;5068;51.286;7.518;2022-09-09T06:57:21;98676.00;;;18.10
10058;BMP180;5068;51.286;7.518;2022-09-09T06:59:15;98682.00;;;18.10
10058;BMP180;5068;51.286;7.518;2022-09-09T07:00:50;98681.00;;;18.20
10058;BMP180;5068;51.286;7.518;2022-09-09T07:02:25;98683.00;;;18.20
10058;BMP180;5068;51.286;7.518;2022-09-09T07:04:03;98682.00;;;18.20
10058;BMP180;5068;51.286;7.518;2022-09-09T07:05:41;98679.00;;;18.30
10058;BMP180;5068;51.286;7.518;2022-09-09T07:07:14;98675.00;;;18.30
10058;BMP180;5068;51.286;7.518;2022-09-09T07:08:50;98684.00;;;18.30
10058;BMP180;5068;51.286;7.518;2022-09-09T07:10:30;98681.00;;;18.40
10058;BMP180;5068;51.286;7.518;2022-09-09T07:12:04;98695.00;;;18.40
10058;BMP180;5068;51.286;7.518;2022-09-09T07:13:40;98685.00;;;18.40
10058;BMP180;5068;51.286;7.518;2022-09-09T07:15:14;98688.00;;;18.50
10058;BMP180;5068;51.286;7.518;2022-09-09T07:16:51;98692.00;;;18.50
10058;BMP180;5068;51.286;7.518;2022-09-09T07:18:30;98694.00;;;18.50
10058;BMP180;5068;51.286;7.518;2022-09-09T07:20:05;98692.00;;;18.60
10058;BMP180;5068;51.286;7.518;2022-09-09T07:21:39;98694.00;;;18.60
10058;BMP180;5068;51.286;7.518;2022-09-09T07:23:14;98693.00;;;18.60
10058;BMP180;5068;51.286;7.518;2022-09-09T07:24:48;98699.00;;;18.70
10058;BMP180;5068;51.286;7.518;2022-09-09T07:26:26;98696.00;;;18.70
10058;BMP180;5068;51.286;7.518;2022-09-09T07:28:01;98695.00;;;18.70
10058;BMP180;5068;51.286;7.518;2022-09-09T07:29:35;98696.00;;;18.80
10058;BMP180;5068;51.286;7.518;2022-09-09T07:31:15;98697.00;;;18.80
10058;BMP180;5068;51.286;7.518;2022-09-09T07:32:51;98698.00;;;18.80
10058;BMP180;5068;51.286;7.518;2022-09-09T07:34:25;98699.00;;;18.90
10058;BMP180;5068;51.286;7.518;2022-09-09T07:36:04;98695.00;;;18.90
10058;BMP180;5068;51.286;7.518;2022-09-09T07:37:41;98690.00;;;18.90
10058;BMP180;5068;51.286;7.518;2022-09-09T07:39:21;98692.00;;;18.90
10058;BMP180;5068;51.286;7.518;2022-09-09T07:41:04;98703.00;;;19.00
10058;BMP180;5068;51.286;7.518;2022-09-09T07:42:38;98695.00;;;19.00
10058;BMP180;5068;51.286;7.518;2022-09-09T07:44:14;98699.00;;;19.00
10058;BMP180;5068;51.286;7.518;2022-09-09T07:45:57;98695.00;;;19.10
10058;BMP180;5068;51.286;7.518;2022-09-09T07:47:32;98697.00;;;19.10
10058;BMP180;5068;51.286;7.518;2022-09-09T07:49:09;98699.00;;;19.10
10058;BMP180;5068;51.286;7.518;2022-09-09T07:50:43;98702.00;;;19.20
10058;BMP180;5068;51.286;7.518;2022-09-09T07:52:17;98704.00;;;19.20
10058;BMP180;5068;51.286;7.518;2022-09-09T07:53:59;98707.00;;;19.30
10058;BMP180;5068;51.286;7.518;2022-09-09T07:55:35;98707.00;;;19.30
10058;BMP180;5068;51.286;7.518;2022-09-09T07:57:08;98695.00;;;19.30
10058;BMP180;5068;51.286;7.518;2022-09-09T07:58:46;98692.00;;;19.40
10058;BMP180;5068;51.286;7.518;2022-09-09T08:00:20;98704.00;;;19.40
10058;BMP180;5068;51.286;7.518;2022-09-09T08:01:58;98694.00;;;19.40
10058;BMP180;5068;51.286;7.518;2022-09-09T08:03:34;98699.00;;;19.50
10058;BMP180;5068;51.286;7.518;2022-09-09T08:05:09;98705.00;;;19.50
10058;BMP180;5068;51.286;7.518;2022-09-09T08:06:47;98702.00;;;19.50
10058;BMP180;5068;51.286;7.518;2022-09-09T08:08:22;98703.00;;;19.50
10058;BMP180;5068;51.286;7.518;2022-09-09T08:09:56;98702.00;;;19.60
10058;BMP180;5068;51.286;7.518;2022-09-09T08:11:33;98710.00;;;19.60
10058;BMP180;5068;51.286;7.518;2022-09-09T08:13:10;98707.00;;;19.70
10058;BMP180;5068;51.286;7.518;2022-09-09T08:14:50;98701.00;;;19.70
10058;BMP180;5068;51.286;7.518;2022-09-09T08:16:31;98704.00;;;19.70
10058;BMP180;5068;51.286;7.518;2022-09-09T08:18:05;98696.00;;;19.80
10058;BMP180;5068;51.286;7.518;2022-09-09T08:19:39;98703.00;;;19.80
10058;BMP180;5068;51.286;7.518;2022-09-09T08:21:21;98703.00;;;19.90
10058;BMP180;5068;51.286;7.518;2022-09-09T08:22:55;98709.00;;;20.00
10058;BMP180;5068;51.286;7.518;2022-09-09T08:24:29;98710.00;;;20.00
10058;BMP180;5068;51.286;7.518;2022-09-09T08:26:09;98706.00;;;20.10
10058;BMP180;5068;51.286;7.518;2022-09-09T08:27:43;98702.00;;;20.10
10058;BMP180;5068;51.286;7.518;2022-09-09T08:29:17;98712.00;;;20.20
10058;BMP180;5068;51.286;7.518;2022-09-09T08:30:52;98697.00;;;20.30
10058;BMP180;5068;51.286;7.518;2022-09-09T08:32:26;98708.00;;;20.30
10058;BMP180;5068;51.286;7.518;2022-09-09T08:34:00;98708.00;;;20.40
10058;BMP180;5068;51.286;7.518;2022-09-09T08:35:35;98708.00;;;20.50
10058;BMP180;5068;51.286;7.518;2022-09-09T08:37:09;98702.00;;;20.60
10058;BMP180;5068;51.286;7.518;2022-09-09T08:38:48;98715.00;;;20.70
10058;BMP180;5068;51.286;7.518;2022-09-09T08:40:31;98709.00;;;20.70
10058;BMP180;5068;51.286;7.518;2022-09-09T08:42:35;98711.00;;;20.80
10058;BMP180;5068;51.286;7.518;2022-09-09T08:44:19;98703.00;;;20.80
10058;BMP180;5068;51.286;7.518;2022-09-09T08:46:04;98707.00;;;20.90
10058;BMP180;5068;51.286;7.518;2022-09-09T08:47:54;98701.00;;;21.00
10058;BMP180;5068;51.286;7.518;2022-09-09T08:50:01;98711.00;;;21.00
10058;BMP180;5068;51.286;7.518;2022-09-09T08:51:39;98718.00;;;21.10
10058;BMP180;5068;51.286;7.518;2022-09-09T08:53:20;98713.00;;;21.20
10058;BMP180;5068;51.286;7.518;2022-09-09T08:55:19;98711.00;;;21.30
10058;BMP180;5068;51.286;7.518;2022-09-09T08:56:54;98716.00;;;21.30
10058;BMP180;5068;51.286;7.518;2022-09-09T08:58:32;98708.00;;;21.40
10058;BMP180;5068;51.286;7.518;2022-09-09T09:00:11;98710.00;;;21.50
10058;BMP180;5068;51.286;7.518;2022-09-09T09:02:00;98706.00;;;21.60
10058;BMP180;5068;51.286;7.518;2022-09-09T09:03:53;98709.00;;;21.60
10058;BMP180;5068;51.286;7.518;2022-09-09T09:05:37;98709.00;;;21.60
10058;BMP180;5068;51.286;7.518;2022-09-09T09:07:28;98709.00;;;21.70
10058;BMP180;5068;51.286;7.518;2022-09-09T09:09:22;98709.00;;;21.70
10058;BMP180;5068;51.286;7.518;2022-09-09T09:10:58;98718.00;;;21.80
10058;BMP180;5068;51.286;7.518;2022-09-09T09:12:40;98720.00;;;21.90
10058;BMP180;5068;51.286;7.518;2022-09-09T09:14:20;98717.00;;;21.90
10058;BMP180;5068;51.286;7.518;2022-09-09T09:16:10;98721.00;;;22.00
10058;BMP180;5068;51.286;7.518;2022-09-09T09:17:47;98722.00;;;22.00
10058;BMP180;5068;51.286;7.518;2022-09-09T09:19:22;98725.00;;;22.10
10058;BMP180;5068;51.286;7.518;2022-09-09T09:21:06;98717.00;;;22.10
10058;BMP180;5068;51.286;7.518;2022-09-09T09:22:49;98726.00;;;22.10
10058;BMP180;5068;51.286;7.518;2022-09-09T09:24:34;98723.00;;;22.10
10058;BMP180;5068;51.286;7.518;2022-09-09T09:26:10;98722.00;;;22.10
10058;BMP180;5068;51.286;7.518;2022-09-09T09:28:02;98724.00;;;22.20
10058;BMP180;5068;51.286;7.518;2022-09-09T09:29:45;98725.00;;;22.20
10058;BMP180;5068;51.286;7.518;2022-09-09T09:31:39;98717.00;;;22.20
10058;BMP180;5068;51.286;7.518;2022-09-09T09:33:20;98712.00;;;22.30
10058;BMP180;5068;51.286;7.518;2022-09-09T09:34:57;98722.00;;;22.30
10058;BMP180;5068;51.286;7.518;2022-09-09T09:36:42;98708.00;;;22.40
10058;BMP180;5068;51.286;7.518;2022-09-09T09:38:22;98709.00;;;22.40
10058;BMP180;5068;51.286;7.518;2022-09-09T09:40:21;98713.00;;;22.40